Time;durP1;ratioP1;P1;durP2;ratioP2;P2;SDS_P1;SDS_P2;PMS_P1;PMS_P2;Temp;Humidity;BMP_temperature;BMP_pressure;BME280_temperature;BME280_humidity;BME280_pressure;Samples;Min_cycle;Max_cycle;Signal;HPM_P1;HPM_P2
2021/04/11 00:01:37;;;;;;;81.38;64.47;;;;;;;;;;5048371;28;20397;-90
2021/04/11 00:04:04;;;;;;;76.78;61.00;;;;;;;;;;5047895;28;20822;-90
2021/04/11 00:06:29;;;;;;;83.82;64.45;;;;;;;;;;5047804;28;20934;-88
2021/04/11 00:08:55;;;;;;;86.20;65.93;;;;;;;;;;5047458;28;20390;-90
2021/04/11 00:11:22;;;;;;;88.70;67.43;;;;;;;;;;5048168;28;20503;-89
2021/04/11 00:13:50;;;;;;;90.78;68.95;;;;;;;;;;5047788;28;20388;-89
2021/04/11 00:16:16;;;;;;;88.13;67.87;;;;;;;;;;5048695;28;20461;-88
2021/04/11 00:18:42;;;;;;;91.90;69.07;;;;;;;;;;5033269;28;20406;-91
2021/04/11 00:21:08;;;;;;;84.90;66.60;;;;;;;;;;5033553;28;20377;-91
2021/04/11 00:23:34;;;;;;;88.60;68.47;;;;;;;;;;5048306;28;20380;-86
2021/04/11 00:26:00;;;;;;;87.88;68.65;;;;;;;;;;5048315;28;20443;-92
2021/04/11 00:28:27;;;;;;;90.40;69.03;;;;;;;;;;5048505;28;20380;-87
2021/04/11 00:30:53;;;;;;;89.50;69.07;;;;;;;;;;5047862;28;20431;-90
2021/04/11 00:33:24;;;;;;;90.32;68.28;;;;;;;;;;5048112;28;20373;-87
2021/04/11 00:35:54;;;;;;;88.93;68.75;;;;;;;;;;5047773;28;20847;-88
2021/04/11 00:38:20;;;;;;;91.47;71.20;;;;;;;;;;5047628;28;20770;-91
2021/04/11 00:40:46;;;;;;;89.13;70.53;;;;;;;;;;5047816;28;20396;-88
2021/04/11 00:43:13;;;;;;;89.68;71.28;;;;;;;;;;5047704;28;20365;-89
2021/04/11 00:45:49;;;;;;;88.07;70.40;;;;;;;;;;5032555;28;20419;-88
2021/04/11 00:48:19;;;;;;;94.47;73.45;;;;;;;;;;5048646;28;20374;-87
2021/04/11 00:50:56;;;;;;;93.10;73.53;;;;;;;;;;5048585;28;20374;-88
2021/04/11 00:53:22;;;;;;;99.40;77.30;;;;;;;;;;5051143;28;20377;-88
2021/04/11 00:55:49;;;;;;;92.43;74.40;;;;;;;;;;5051697;28;20445;-87
2021/04/11 00:58:15;;;;;;;92.47;74.13;;;;;;;;;;5050968;28;20354;-90
2021/04/11 01:00:41;;;;;;;93.25;75.75;;;;;;;;;;5050949;28;20448;-89
2021/04/11 01:03:07;;;;;;;96.57;75.75;;;;;;;;;;5035014;28;20393;-88
2021/04/11 01:05:35;;;;;;;97.03;78.78;;;;;;;;;;5049190;28;20409;-91
2021/04/11 01:08:10;;;;;;;90.93;75.22;;;;;;;;;;5048552;28;20445;-88
2021/04/11 01:10:38;;;;;;;95.03;74.88;;;;;;;;;;5048734;28;20382;-89
2021/04/11 01:13:04;;;;;;;90.60;74.00;;;;;;;;;;5048471;28;20397;-88
2021/04/11 01:15:31;;;;;;;89.13;74.28;;;;;;;;;;5048538;28;20504;-90
2021/04/11 01:17:57;;;;;;;94.10;77.57;;;;;;;;;;5031592;28;20519;-87
2021/04/11 01:20:24;;;;;;;94.47;77.78;;;;;;;;;;5048484;28;20744;-87
2021/04/11 01:23:05;;;;;;;97.65;78.85;;;;;;;;;;5047802;28;20385;-90
2021/04/11 01:25:32;;;;;;;92.77;76.67;;;;;;;;;;5048970;28;20365;-90
2021/04/11 01:27:59;;;;;;;99.68;80.43;;;;;;;;;;5048102;28;20376;-90
2021/04/11 01:30:27;;;;;;;93.60;78.85;;;;;;;;;;5032679;28;20400;-92
2021/04/11 01:32:54;;;;;;;95.03;78.30;;;;;;;;;;5032782;28;20871;-87
2021/04/11 01:35:22;;;;;;;96.22;80.43;;;;;;;;;;5032990;28;20369;-90
2021/04/11 01:37:50;;;;;;;99.32;82.20;;;;;;;;;;5034218;28;20369;-88
2021/04/11 01:40:19;;;;;;;105.00;84.33;;;;;;;;;;5033686;28;20392;-87
2021/04/11 01:42:45;;;;;;;100.32;85.80;;;;;;;;;;5033260;28;20381;-90
2021/04/11 01:45:13;;;;;;;98.75;84.07;;;;;;;;;;5048668;28;20381;-87
2021/04/11 01:47:39;;;;;;;102.18;87.15;;;;;;;;;;5047036;28;20374;-91
2021/04/11 01:50:09;;;;;;;106.25;87.88;;;;;;;;;;5048061;28;20373;-92
2021/04/11 01:52:36;;;;;;;104.87;87.37;;;;;;;;;;5047827;28;20411;-90
2021/04/11 01:55:03;;;;;;;101.53;86.05;;;;;;;;;;5047665;28;20468;-90
2021/04/11 01:57:31;;;;;;;108.30;89.60;;;;;;;;;;5047751;28;20379;-89
2021/04/11 02:00:20;;;;;;;106.32;88.38;;;;;;;;;;5031420;28;20370;-89
2021/04/11 02:02:46;;;;;;;110.05;90.38;;;;;;;;;;5026238;28;20373;-91
2021/04/11 02:05:15;;;;;;;107.93;89.00;;;;;;;;;;5047948;28;20940;-92
2021/04/11 02:07:41;;;;;;;106.63;89.10;;;;;;;;;;5032494;28;20431;-93
2021/04/11 02:10:08;;;;;;;108.22;89.47;;;;;;;;;;5033678;28;20382;-91
2021/04/11 02:12:34;;;;;;;111.70;92.85;;;;;;;;;;5051013;28;20417;-89
2021/04/11 02:15:01;;;;;;;109.47;91.90;;;;;;;;;;5051804;28;20374;-92
2021/04/11 02:17:27;;;;;;;110.97;93.00;;;;;;;;;;5052712;28;20851;-92
2021/04/11 02:19:53;;;;;;;110.87;93.20;;;;;;;;;;5054912;28;20370;-90
2021/04/11 02:22:22;;;;;;;111.30;92.63;;;;;;;;;;5056327;28;20388;-86
2021/04/11 02:24:49;;;;;;;109.80;92.72;;;;;;;;;;5052650;28;20392;-87
2021/04/11 02:27:16;;;;;;;111.07;92.13;;;;;;;;;;5053475;28;20396;-86
2021/04/11 02:29:45;;;;;;;110.75;92.75;;;;;;;;;;5053362;28;20373;-90
2021/04/11 02:32:11;;;;;;;116.07;95.13;;;;;;;;;;5050970;28;20393;-90
2021/04/11 02:34:37;;;;;;;111.38;94.05;;;;;;;;;;5038398;28;20418;-87
2021/04/11 02:37:05;;;;;;;111.13;94.03;;;;;;;;;;5050654;28;21212;-91
2021/04/11 02:39:34;;;;;;;110.43;93.18;;;;;;;;;;5050984;28;20469;-91
2021/04/11 02:42:00;;;;;;;118.35;95.85;;;;;;;;;;5050865;28;20445;-91
2021/04/11 02:44:27;;;;;;;114.60;95.63;;;;;;;;;;5035685;28;20420;-91
2021/04/11 02:46:53;;;;;;;114.72;95.45;;;;;;;;;;5035462;28;20403;-90
2021/04/11 02:49:21;;;;;;;115.38;96.45;;;;;;;;;;5050909;28;20381;-89
2021/04/11 02:51:47;;;;;;;122.43;97.80;;;;;;;;;;5050653;28;20536;-90
2021/04/11 02:54:15;;;;;;;112.20;94.65;;;;;;;;;;5050990;28;20377;-87
2021/04/11 02:56:41;;;;;;;119.20;97.57;;;;;;;;;;5050574;28;20377;-87
2021/04/11 02:59:07;;;;;;;115.03;97.50;;;;;;;;;;5052400;28;20381;-91
2021/04/11 03:01:36;;;;;;;117.32;96.55;;;;;;;;;;5037131;28;20380;-88
2021/04/11 03:04:02;;;;;;;120.10;99.03;;;;;;;;;;5035950;28;20860;-87
2021/04/11 03:06:37;;;;;;;121.53;97.72;;;;;;;;;;5050711;28;20753;-93
2021/04/11 03:09:21;;;;;;;119.88;97.78;;;;;;;;;;5050157;28;20405;-90
2021/04/11 03:11:49;;;;;;;116.38;96.63;;;;;;;;;;5050566;28;20421;-87
2021/04/11 03:14:17;;;;;;;120.35;99.07;;;;;;;;;;5038488;28;20412;-87
2021/04/11 03:16:43;;;;;;;113.32;94.57;;;;;;;;;;5053999;28;20753;-88
2021/04/11 03:19:10;;;;;;;117.17;97.13;;;;;;;;;;5055387;28;20382;-88
2021/04/11 03:21:40;;;;;;;117.63;96.25;;;;;;;;;;5054204;28;20369;-93
2021/04/11 03:24:06;;;;;;;113.87;93.33;;;;;;;;;;5050416;28;20385;-87
2021/04/11 03:26:38;;;;;;;113.55;95.32;;;;;;;;;;5053040;28;20392;-91
2021/04/11 03:29:06;;;;;;;112.95;95.07;;;;;;;;;;5035723;28;20373;-93
2021/04/11 03:31:34;;;;;;;117.40;97.70;;;;;;;;;;5052620;28;20452;-87
2021/04/11 03:34:02;;;;;;;114.80;94.63;;;;;;;;;;5037944;28;20377;-87
2021/04/11 03:36:28;;;;;;;109.32;94.60;;;;;;;;;;5054990;28;20373;-87
2021/04/11 03:38:57;;;;;;;115.25;96.47;;;;;;;;;;5038670;28;20370;-92
2021/04/11 03:41:23;;;;;;;115.25;95.75;;;;;;;;;;5038186;28;20380;-87
2021/04/11 03:43:51;;;;;;;115.10;96.32;;;;;;;;;;5053798;28;20366;-87
2021/04/11 03:46:17;;;;;;;109.22;93.13;;;;;;;;;;5051149;28;20435;-89
2021/04/11 03:48:57;;;;;;;114.50;93.83;;;;;;;;;;5050015;28;20374;-90
2021/04/11 03:51:25;;;;;;;107.32;93.63;;;;;;;;;;5053662;28;20404;-88
2021/04/11 03:54:03;;;;;;;118.55;96.45;;;;;;;;;;5052305;28;20864;-88
2021/04/11 03:56:34;;;;;;;109.13;93.82;;;;;;;;;;5052490;28;20413;-94
2021/04/11 03:59:01;;;;;;;109.50;93.07;;;;;;;;;;5050258;28;20464;-90
2021/04/11 04:01:29;;;;;;;112.50;93.50;;;;;;;;;;5034270;28;20379;-88
2021/04/11 04:04:01;;;;;;;114.53;95.65;;;;;;;;;;5034240;28;20370;-92
2021/04/11 04:06:32;;;;;;;111.82;94.68;;;;;;;;;;5033614;28;20400;-89
2021/04/11 04:08:58;;;;;;;113.20;95.85;;;;;;;;;;5038174;28;20440;-88
2021/04/11 04:11:33;;;;;;;113.72;95.82;;;;;;;;;;5037449;28;20506;-89
2021/04/11 04:14:11;;;;;;;108.75;94.20;;;;;;;;;;5035285;28;20379;-92
2021/04/11 04:16:46;;;;;;;112.13;95.95;;;;;;;;;;5050475;28;20373;-94
2021/04/11 04:19:26;;;;;;;119.00;98.20;;;;;;;;;;5050287;28;20365;-90
2021/04/11 04:21:58;;;;;;;110.07;93.50;;;;;;;;;;5034604;28;20444;-87
2021/04/11 04:24:24;;;;;;;114.07;94.90;;;;;;;;;;5054843;28;20412;-86
2021/04/11 04:26:56;;;;;;;111.85;94.70;;;;;;;;;;5038670;28;20369;-86
2021/04/11 04:29:25;;;;;;;111.90;92.28;;;;;;;;;;5055338;28;20389;-85
2021/04/11 04:31:55;;;;;;;108.40;92.70;;;;;;;;;;5056603;28;20394;-90
2021/04/11 04:34:40;;;;;;;109.53;95.25;;;;;;;;;;5059205;28;20472;-88
2021/04/11 04:37:11;;;;;;;109.03;93.10;;;;;;;;;;5059062;28;20441;-87
2021/04/11 04:39:51;;;;;;;112.55;94.80;;;;;;;;;;5058052;28;20382;-86
2021/04/11 04:42:17;;;;;;;108.32;90.75;;;;;;;;;;5058137;28;20357;-89
2021/04/11 04:45:07;;;;;;;107.50;90.78;;;;;;;;;;5037676;28;20374;-89
2021/04/11 04:47:33;;;;;;;107.65;91.90;;;;;;;;;;5028726;28;20370;-90
2021/04/11 04:50:05;;;;;;;108.57;93.03;;;;;;;;;;5054881;28;20388;-87
2021/04/11 04:52:31;;;;;;;109.38;92.20;;;;;;;;;;5056548;28;20436;-86
2021/04/11 04:55:23;;;;;;;108.90;93.47;;;;;;;;;;5041189;28;20378;-87
2021/04/11 04:57:59;;;;;;;108.20;92.57;;;;;;;;;;5037335;28;20378;-86
2021/04/11 05:00:34;;;;;;;109.45;91.93;;;;;;;;;;5055633;28;20370;-85
2021/04/11 05:03:16;;;;;;;108.43;91.10;;;;;;;;;;5039937;28;20432;-87
2021/04/11 05:05:47;;;;;;;105.63;91.38;;;;;;;;;;5055459;28;20552;-86
2021/04/11 05:08:19;;;;;;;103.72;90.68;;;;;;;;;;5040225;28;20370;-88
2021/04/11 05:10:48;;;;;;;104.20;89.90;;;;;;;;;;5057108;28;20397;-86
2021/04/11 05:13:24;;;;;;;98.90;86.87;;;;;;;;;;5055611;28;20929;-86
2021/04/11 05:15:53;;;;;;;97.90;86.65;;;;;;;;;;5039130;28;20373;-89
2021/04/11 05:18:23;;;;;;;101.97;88.70;;;;;;;;;;5036955;28;20369;-92
2021/04/11 05:20:52;;;;;;;104.50;88.93;;;;;;;;;;5048040;28;20378;-87
2021/04/11 05:23:28;;;;;;;97.73;86.33;;;;;;;;;;5032842;28;20373;-89
2021/04/11 05:26:00;;;;;;;102.50;87.38;;;;;;;;;;5048736;28;20496;-88
2021/04/11 05:28:41;;;;;;;98.03;86.97;;;;;;;;;;5047937;28;20382;-89
2021/04/11 05:31:11;;;;;;;97.82;87.05;;;;;;;;;;5047956;28;20384;-88
2021/04/11 05:33:38;;;;;;;99.40;86.10;;;;;;;;;;5048056;28;20462;-88
2021/04/11 05:36:07;;;;;;;96.28;84.15;;;;;;;;;;5035131;28;20391;-88
2021/04/11 05:38:33;;;;;;;94.18;83.88;;;;;;;;;;5050788;28;20457;-87
2021/04/11 05:41:07;;;;;;;92.05;81.47;;;;;;;;;;5049231;28;20374;-87
2021/04/11 05:43:50;;;;;;;91.45;81.18;;;;;;;;;;5050586;28;20369;-92
2021/04/11 05:46:23;;;;;;;91.18;81.25;;;;;;;;;;5036411;28;20373;-89
2021/04/11 05:48:55;;;;;;;90.47;77.75;;;;;;;;;;5052880;28;20404;-90
2021/04/11 05:51:24;;;;;;;89.47;78.82;;;;;;;;;;5055091;28;20428;-88
2021/04/11 05:54:02;;;;;;;92.00;80.80;;;;;;;;;;5055786;28;20401;-87
2021/04/11 05:56:40;;;;;;;91.97;79.75;;;;;;;;;;5036139;28;20500;-92
2021/04/11 05:59:09;;;;;;;90.95;80.20;;;;;;;;;;5051902;28;20374;-90
2021/04/11 06:01:38;;;;;;;91.38;80.50;;;;;;;;;;5057762;28;20788;-90
2021/04/11 06:04:07;;;;;;;87.95;78.18;;;;;;;;;;5043593;28;20917;-87
2021/04/11 06:06:47;;;;;;;86.75;77.05;;;;;;;;;;5054276;28;20925;-88
2021/04/11 06:09:24;;;;;;;88.63;77.28;;;;;;;;;;5053392;28;20377;-90
2021/04/11 06:12:03;;;;;;;87.05;75.88;;;;;;;;;;5054170;28;20420;-87
2021/04/11 06:14:33;;;;;;;87.70;75.53;;;;;;;;;;5043380;28;20402;-86
2021/04/11 06:16:59;;;;;;;88.20;77.68;;;;;;;;;;5059441;28;20413;-86
2021/04/11 06:19:27;;;;;;;85.72;75.82;;;;;;;;;;5059958;28;20393;-87
2021/04/11 06:21:59;;;;;;;86.88;74.43;;;;;;;;;;5042481;28;20376;-87
2021/04/11 06:24:44;;;;;;;82.38;73.43;;;;;;;;;;5056908;28;20377;-92
2021/04/11 06:27:25;;;;;;;79.57;70.97;;;;;;;;;;5056820;28;20444;-87
2021/04/11 06:29:51;;;;;;;76.85;68.55;;;;;;;;;;5059083;28;20373;-93
2021/04/11 06:32:19;;;;;;;77.32;68.78;;;;;;;;;;5059444;28;20400;-89
2021/04/11 06:35:11;;;;;;;68.32;60.90;;;;;;;;;;5054073;28;20709;-91
2021/04/11 06:37:39;;;;;;;68.40;61.00;;;;;;;;;;5040959;28;20365;-88
2021/04/11 06:40:10;;;;;;;65.60;58.60;;;;;;;;;;5055184;28;20423;-90
2021/04/11 06:42:55;;;;;;;63.33;56.53;;;;;;;;;;5052478;28;20389;-87
2021/04/11 06:45:33;;;;;;;60.25;53.65;;;;;;;;;;5059056;28;20370;-90
2021/04/11 06:48:17;;;;;;;59.28;52.88;;;;;;;;;;5058732;28;20370;-91
2021/04/11 06:50:43;;;;;;;61.63;54.92;;;;;;;;;;5060477;28;20774;-87
2021/04/11 06:53:16;;;;;;;62.28;55.70;;;;;;;;;;5042547;28;20397;-91
2021/04/11 06:55:57;;;;;;;61.25;54.65;;;;;;;;;;5037013;28;20388;-92
2021/04/11 06:58:42;;;;;;;61.08;54.33;;;;;;;;;;5053664;28;20381;-89
2021/04/11 07:01:17;;;;;;;61.77;55.07;;;;;;;;;;5057863;28;20777;-90
2021/04/11 07:03:55;;;;;;;61.00;54.50;;;;;;;;;;5059445;28;20413;-88
2021/04/11 07:06:42;;;;;;;59.67;53.35;;;;;;;;;;5052262;28;20374;-91
2021/04/11 07:09:26;;;;;;;57.47;51.37;;;;;;;;;;5037088;28;20384;-88
2021/04/11 07:12:11;;;;;;;57.78;51.47;;;;;;;;;;5050539;28;20389;-93
2021/04/11 07:14:56;;;;;;;53.23;47.80;;;;;;;;;;5050889;28;20460;-91
2021/04/11 07:17:42;;;;;;;54.78;48.78;;;;;;;;;;5049547;28;21314;-91
2021/04/11 07:20:29;;;;;;;54.30;48.40;;;;;;;;;;5050475;28;20456;-90
2021/04/11 07:23:04;;;;;;;53.42;47.65;;;;;;;;;;5033981;28;20366;-87
2021/04/11 07:25:46;;;;;;;55.15;48.22;;;;;;;;;;5048830;28;20378;-91
2021/04/11 07:28:18;;;;;;;54.47;48.47;;;;;;;;;;5048827;28;20373;-90
2021/04/11 07:30:48;;;;;;;50.15;44.88;;;;;;;;;;5034571;28;20376;-89
2021/04/11 07:33:32;;;;;;;50.60;45.08;;;;;;;;;;5050104;28;20389;-93
2021/04/11 07:36:17;;;;;;;48.28;43.17;;;;;;;;;;5050744;28;20441;-93
2021/04/11 07:38:52;;;;;;;49.33;44.20;;;;;;;;;;5050227;28;20358;-91
2021/04/11 07:41:24;;;;;;;46.28;41.38;;;;;;;;;;5050019;28;20407;-90
2021/04/11 07:44:13;;;;;;;47.57;42.37;;;;;;;;;;5051124;28;20373;-88
2021/04/11 07:46:39;;;;;;;46.47;41.47;;;;;;;;;;5051224;28;20373;-86
2021/04/11 07:49:15;;;;;;;45.30;40.45;;;;;;;;;;5049146;28;20457;-90
2021/04/11 07:51:47;;;;;;;45.05;40.15;;;;;;;;;;5050215;28;20772;-87
2021/04/11 07:54:35;;;;;;;44.70;39.90;;;;;;;;;;5050384;28;20374;-85
2021/04/11 07:57:16;;;;;;;45.08;40.17;;;;;;;;;;5033007;28;20416;-92
2021/04/11 08:00:01;;;;;;;42.28;37.80;;;;;;;;;;5032704;28;20369;-86
2021/04/11 08:02:46;;;;;;;42.47;37.95;;;;;;;;;;5047843;28;20381;-85
2021/04/11 08:05:30;;;;;;;42.97;38.10;;;;;;;;;;5032106;28;20420;-88
2021/04/11 08:08:02;;;;;;;44.63;39.78;;;;;;;;;;5032227;28;20863;-87
2021/04/11 08:10:37;;;;;;;41.58;37.22;;;;;;;;;;5047359;28;20393;-89
2021/04/11 08:13:39;;;;;;;44.20;39.42;;;;;;;;;;5031671;28;20402;-88
2021/04/11 08:16:12;;;;;;;42.72;38.35;;;;;;;;;;4998147;28;20371;-91
2021/04/11 08:18:44;;;;;;;41.77;37.37;;;;;;;;;;5028678;28;20867;-89
2021/04/11 08:21:22;;;;;;;42.77;38.13;;;;;;;;;;5036128;28;20381;-87
2021/04/11 08:24:07;;;;;;;42.03;37.60;;;;;;;;;;5050683;28;20844;-87
2021/04/11 08:26:33;;;;;;;43.07;38.37;;;;;;;;;;5031673;28;20559;-92
2021/04/11 08:29:12;;;;;;;43.23;38.53;;;;;;;;;;5047759;28;20362;-91
2021/04/11 08:31:57;;;;;;;43.47;38.70;;;;;;;;;;5048108;28;20488;-86
2021/04/11 08:34:23;;;;;;;42.75;38.03;;;;;;;;;;5047524;28;20393;-87
2021/04/11 08:36:49;;;;;;;42.22;37.80;;;;;;;;;;5047733;28;20405;-90
2021/04/11 08:39:38;;;;;;;41.45;36.67;;;;;;;;;;5047457;28;20705;-88
2021/04/11 08:42:07;;;;;;;40.70;36.30;;;;;;;;;;5032179;28;20862;-89
2021/04/11 08:44:54;;;;;;;40.58;36.13;;;;;;;;;;5028567;28;20460;-90
2021/04/11 08:47:23;;;;;;;38.38;33.90;;;;;;;;;;5031242;28;20377;-86
2021/04/11 08:49:56;;;;;;;39.55;33.45;;;;;;;;;;5047764;28;20381;-90
2021/04/11 08:52:29;;;;;;;36.40;32.45;;;;;;;;;;5030683;28;20423;-87
2021/04/11 08:55:16;;;;;;;37.87;33.10;;;;;;;;;;5031594;28;20378;-92
2021/04/11 08:57:44;;;;;;;35.78;31.88;;;;;;;;;;5033585;28;20848;-88
2021/04/11 09:00:13;;;;;;;34.80;30.88;;;;;;;;;;5031081;28;20468;-90
2021/04/11 09:02:57;;;;;;;34.83;30.95;;;;;;;;;;5032800;28;20391;-90
2021/04/11 09:05:27;;;;;;;34.42;30.63;;;;;;;;;;5038620;28;20400;-89
2021/04/11 09:08:11;;;;;;;33.28;29.70;;;;;;;;;;5054988;28;20808;-88
2021/04/11 09:10:48;;;;;;;32.05;28.65;;;;;;;;;;5018498;28;20761;-85
2021/04/11 09:13:20;;;;;;;31.97;28.40;;;;;;;;;;5034790;28;20492;-85
2021/04/11 09:15:55;;;;;;;34.67;28.33;;;;;;;;;;5051480;28;20413;-91
2021/04/11 09:18:45;;;;;;;30.37;26.77;;;;;;;;;;5045514;28;20439;-90
2021/04/11 09:21:29;;;;;;;31.63;26.60;;;;;;;;;;5032674;28;20428;-89
2021/04/11 09:24:08;;;;;;;31.45;27.33;;;;;;;;;;5032439;28;20374;-90
2021/04/11 09:26:40;;;;;;;27.80;24.80;;;;;;;;;;5032493;28;20371;-87
2021/04/11 09:29:24;;;;;;;28.63;25.55;;;;;;;;;;5033537;28;20390;-88
2021/04/11 09:32:11;;;;;;;31.10;26.25;;;;;;;;;;5032928;28;20459;-88
2021/04/11 09:34:37;;;;;;;28.63;25.60;;;;;;;;;;5032141;28;20369;-93
2021/04/11 09:37:06;;;;;;;27.58;24.58;;;;;;;;;;5033032;28;20380;-90
2021/04/11 09:39:51;;;;;;;29.63;25.05;;;;;;;;;;5026745;28;21213;-90
2021/04/11 09:42:20;;;;;;;29.38;24.67;;;;;;;;;;5031783;28;20448;-90
2021/04/11 09:45:12;;;;;;;27.33;24.42;;;;;;;;;;5027377;28;20389;-90
2021/04/11 09:47:38;;;;;;;27.08;22.90;;;;;;;;;;5029216;28;20799;-90
2021/04/11 09:50:22;;;;;;;25.13;22.43;;;;;;;;;;5049709;28;20390;-89
2021/04/11 09:53:01;;;;;;;24.98;22.27;;;;;;;;;;5031979;28;20409;-90
2021/04/11 09:55:42;;;;;;;26.33;22.40;;;;;;;;;;5033202;28;20369;-93
2021/04/11 09:58:20;;;;;;;25.13;22.40;;;;;;;;;;5036007;28;20917;-90
2021/04/11 10:01:00;;;;;;;25.17;21.27;;;;;;;;;;5028551;28;20389;-89
2021/04/11 10:03:45;;;;;;;25.55;21.95;;;;;;;;;;5034589;28;20392;-86
2021/04/11 10:06:14;;;;;;;24.20;21.00;;;;;;;;;;5031445;28;20393;-87
2021/04/11 10:08:46;;;;;;;22.75;20.20;;;;;;;;;;5042875;28;20385;-85
2021/04/11 10:11:26;;;;;;;24.00;21.48;;;;;;;;;;5030936;28;20453;-89
2021/04/11 10:14:10;;;;;;;23.48;21.15;;;;;;;;;;5031079;28;20377;-89
2021/04/11 10:16:42;;;;;;;25.70;21.85;;;;;;;;;;5030353;28;20381;-86
2021/04/11 10:19:08;;;;;;;24.88;21.85;;;;;;;;;;5030323;28;20982;-86
2021/04/11 10:21:53;;;;;;;23.55;21.02;;;;;;;;;;5031559;28;20921;-86
2021/04/11 10:24:35;;;;;;;25.55;21.30;;;;;;;;;;5030575;28;20389;-86
2021/04/11 10:27:14;;;;;;;23.38;19.15;;;;;;;;;;5032570;28;20713;-85
2021/04/11 10:29:52;;;;;;;22.77;19.63;;;;;;;;;;5027052;28;20377;-87
2021/04/11 10:32:21;;;;;;;23.52;19.42;;;;;;;;;;5032646;28;20397;-85
2021/04/11 10:34:54;;;;;;;21.15;18.85;;;;;;;;;;5047634;28;20373;-86
2021/04/11 10:37:20;;;;;;;22.98;18.38;;;;;;;;;;5031144;28;20720;-87
2021/04/11 10:40:04;;;;;;;22.17;19.05;;;;;;;;;;5032115;28;20381;-86
2021/04/11 10:42:31;;;;;;;22.08;17.30;;;;;;;;;;5029129;28;20370;-88
2021/04/11 10:45:09;;;;;;;19.80;17.45;;;;;;;;;;5028693;28;20880;-86
2021/04/11 10:47:54;;;;;;;20.05;16.52;;;;;;;;;;5031492;28;20442;-89
2021/04/11 10:50:20;;;;;;;20.35;16.95;;;;;;;;;;5032538;28;20388;-91
2021/04/11 10:53:08;;;;;;;19.95;16.42;;;;;;;;;;5050811;28;20394;-88
2021/04/11 10:55:33;;;;;;;21.45;16.42;;;;;;;;;;5031489;28;20876;-87
2021/04/11 10:58:19;;;;;;;20.52;15.60;;;;;;;;;;5030814;28;20414;-91
2021/04/11 11:00:48;;;;;;;17.75;14.95;;;;;;;;;;5030452;28;20774;-90
2021/04/11 11:03:32;;;;;;;18.38;14.07;;;;;;;;;;5032437;28;20374;-92
2021/04/11 11:06:13;;;;;;;18.13;13.55;;;;;;;;;;5030402;28;20950;-89
2021/04/11 11:08:48;;;;;;;17.03;13.43;;;;;;;;;;5032514;28;20428;-89
2021/04/11 11:11:17;;;;;;;16.17;12.50;;;;;;;;;;5029398;28;20461;-87
2021/04/11 11:13:46;;;;;;;13.25;11.18;;;;;;;;;;5048788;28;20764;-90
2021/04/11 11:16:15;;;;;;;13.10;10.77;;;;;;;;;;5030374;28;20378;-89
2021/04/11 11:18:56;;;;;;;12.17;10.90;;;;;;;;;;5032351;28;20374;-91
2021/04/11 11:21:41;;;;;;;11.63;10.13;;;;;;;;;;5033339;28;20373;-90
2021/04/11 11:24:16;;;;;;;13.32;9.50;;;;;;;;;;5032489;28;20449;-89
2021/04/11 11:26:55;;;;;;;10.85;9.32;;;;;;;;;;5029165;28;20392;-90
2021/04/11 11:29:27;;;;;;;10.95;9.00;;;;;;;;;;5011819;28;20835;-88
2021/04/11 11:32:03;;;;;;;12.75;9.38;;;;;;;;;;5012297;28;20474;-86
2021/04/11 11:34:48;;;;;;;11.63;8.93;;;;;;;;;;5029729;28;20393;-92
2021/04/11 11:37:20;;;;;;;13.07;9.77;;;;;;;;;;5028369;28;20385;-90
2021/04/11 11:39:48;;;;;;;10.68;9.10;;;;;;;;;;5040127;28;20412;-88
2021/04/11 11:42:23;;;;;;;11.38;9.02;;;;;;;;;;5027729;28;20799;-89
2021/04/11 11:45:11;;;;;;;11.55;8.38;;;;;;;;;;5028966;28;20381;-87
2021/04/11 11:47:37;;;;;;;10.80;7.97;;;;;;;;;;5026513;28;20471;-88
2021/04/11 11:50:07;;;;;;;11.00;8.07;;;;;;;;;;5033950;28;20386;-88
2021/04/11 11:52:53;;;;;;;10.48;7.03;;;;;;;;;;5029468;28;20408;-91
2021/04/11 11:55:24;;;;;;;9.98;6.65;;;;;;;;;;5030805;28;20417;-85
2021/04/11 11:58:04;;;;;;;8.07;6.60;;;;;;;;;;5030112;28;20469;-89
2021/04/11 12:00:33;;;;;;;10.00;6.47;;;;;;;;;;5030338;28;20386;-88
2021/04/11 12:03:02;;;;;;;7.63;5.67;;;;;;;;;;5026992;28;20839;-91
2021/04/11 12:05:33;;;;;;;7.05;5.07;;;;;;;;;;5030642;28;20385;-88
2021/04/11 12:08:03;;;;;;;6.50;4.80;;;;;;;;;;5035339;28;20794;-88
2021/04/11 12:10:29;;;;;;;8.88;6.38;;;;;;;;;;5029492;28;20369;-85
2021/04/11 12:13:00;;;;;;;8.52;5.68;;;;;;;;;;5034718;28;20468;-86
2021/04/11 12:15:28;;;;;;;9.05;5.90;;;;;;;;;;5028059;28;20465;-88
2021/04/11 12:18:08;;;;;;;6.70;5.03;;;;;;;;;;5030056;28;20896;-83
2021/04/11 12:20:37;;;;;;;7.43;4.10;;;;;;;;;;5031262;28;20378;-85
2021/04/11 12:23:13;;;;;;;7.18;3.80;;;;;;;;;;5036498;28;20432;-90
2021/04/11 12:25:42;;;;;;;5.78;3.88;;;;;;;;;;5038097;28;20385;-83
2021/04/11 12:28:13;;;;;;;6.25;4.45;;;;;;;;;;5031086;28;20369;-88
2021/04/11 12:30:41;;;;;;;7.68;5.10;;;;;;;;;;5033447;28;20956;-87
2021/04/11 12:33:09;;;;;;;5.85;4.47;;;;;;;;;;5030589;28;20741;-86
2021/04/11 12:35:39;;;;;;;8.10;5.22;;;;;;;;;;5030613;28;20414;-88
2021/04/11 12:38:05;;;;;;;7.00;4.43;;;;;;;;;;5031471;28;20416;-87
2021/04/11 12:40:50;;;;;;;6.55;4.25;;;;;;;;;;5028527;28;20405;-85
2021/04/11 12:43:35;;;;;;;9.95;4.72;;;;;;;;;;5025204;28;20403;-84
2021/04/11 12:46:20;;;;;;;5.53;4.10;;;;;;;;;;5019971;28;20382;-89
2021/04/11 12:48:54;;;;;;;6.03;4.30;;;;;;;;;;5019231;28;20387;-87
2021/04/11 12:51:29;;;;;;;6.38;3.85;;;;;;;;;;5009283;28;20414;-87
2021/04/11 12:54:16;;;;;;;5.10;3.78;;;;;;;;;;5009785;28;20363;-83
2021/04/11 12:56:45;;;;;;;5.53;3.63;;;;;;;;;;5010969;28;20838;-85
2021/04/11 12:59:21;;;;;;;4.65;3.60;;;;;;;;;;5010693;28;20375;-89
2021/04/11 13:01:48;;;;;;;6.22;3.88;;;;;;;;;;5009918;28;20387;-87
2021/04/11 13:04:19;;;;;;;7.57;4.55;;;;;;;;;;5009205;28;20881;-89
2021/04/11 13:07:04;;;;;;;6.03;4.38;;;;;;;;;;5011275;28;20402;-87
2021/04/11 13:09:34;;;;;;;6.28;4.57;;;;;;;;;;5010983;28;20818;-84
2021/04/11 13:12:06;;;;;;;5.65;4.28;;;;;;;;;;5010668;28;20394;-85
2021/04/11 13:14:37;;;;;;;5.78;4.05;;;;;;;;;;5011123;28;20378;-85
2021/04/11 13:17:05;;;;;;;7.97;4.45;;;;;;;;;;5010856;28;20462;-89
2021/04/11 13:19:32;;;;;;;5.77;3.83;;;;;;;;;;5010937;28;20379;-85
2021/04/11 13:22:14;;;;;;;6.10;4.18;;;;;;;;;;5011144;28;20375;-87
2021/04/11 13:24:43;;;;;;;6.63;4.07;;;;;;;;;;5009766;28;20395;-86
2021/04/11 13:27:24;;;;;;;4.97;3.75;;;;;;;;;;5011087;28;20912;-88
2021/04/11 13:30:09;;;;;;;4.80;3.80;;;;;;;;;;5010995;28;20379;-86
2021/04/11 13:32:54;;;;;;;6.37;4.00;;;;;;;;;;5010567;28;20484;-88
2021/04/11 13:35:27;;;;;;;7.63;3.95;;;;;;;;;;5011401;28;20367;-90
2021/04/11 13:37:54;;;;;;;6.43;3.83;;;;;;;;;;5023239;28;20920;-85
2021/04/11 13:40:22;;;;;;;7.17;4.33;;;;;;;;;;5028128;28;20373;-89
2021/04/11 13:42:59;;;;;;;7.45;3.97;;;;;;;;;;5029988;28;20444;-88
2021/04/11 13:45:35;;;;;;;6.05;4.13;;;;;;;;;;5030758;28;20369;-90
2021/04/11 13:48:17;;;;;;;6.97;4.43;;;;;;;;;;5029856;28;20373;-86
2021/04/11 13:51:02;;;;;;;6.27;4.70;;;;;;;;;;5031350;28;20393;-91
2021/04/11 13:53:47;;;;;;;7.53;4.93;;;;;;;;;;5031923;28;20397;-89
2021/04/11 13:56:19;;;;;;;6.88;4.55;;;;;;;;;;5029514;28;20374;-88
2021/04/11 13:58:52;;;;;;;7.97;4.63;;;;;;;;;;5029041;28;20415;-88
2021/04/11 14:01:21;;;;;;;7.45;4.63;;;;;;;;;;5029477;28;20389;-83
2021/04/11 14:03:52;;;;;;;7.93;5.03;;;;;;;;;;5029809;28;20362;-85
2021/04/11 14:06:24;;;;;;;6.88;4.60;;;;;;;;;;5029200;28;20365;-82
2021/04/11 14:09:08;;;;;;;5.95;4.28;;;;;;;;;;5030716;28;20417;-85
2021/04/11 14:11:39;;;;;;;7.10;4.40;;;;;;;;;;5030730;28;20441;-83
2021/04/11 14:14:05;;;;;;;5.75;4.60;;;;;;;;;;5029720;28;20393;-88
2021/04/11 14:16:46;;;;;;;6.53;4.65;;;;;;;;;;5032681;28;20362;-85
2021/04/11 14:19:15;;;;;;;6.03;4.28;;;;;;;;;;5030035;28;20798;-84
2021/04/11 14:22:05;;;;;;;6.85;4.03;;;;;;;;;;5038705;28;20873;-84
2021/04/11 14:24:39;;;;;;;7.38;4.47;;;;;;;;;;5021789;28;20904;-85
2021/04/11 14:27:05;;;;;;;6.50;4.78;;;;;;;;;;5030862;28;20373;-84
2021/04/11 14:29:41;;;;;;;8.15;4.88;;;;;;;;;;5032481;28;20371;-83
2021/04/11 14:32:12;;;;;;;7.00;4.57;;;;;;;;;;5032483;28;20408;-84
2021/04/11 14:34:38;;;;;;;7.10;4.60;;;;;;;;;;5033117;28;20358;-84
2021/04/11 14:37:08;;;;;;;5.65;4.35;;;;;;;;;;5039718;28;20405;-83
2021/04/11 14:39:39;;;;;;;6.93;4.65;;;;;;;;;;5028600;28;20370;-85
2021/04/11 14:42:13;;;;;;;7.47;4.43;;;;;;;;;;5032056;28;20476;-84
2021/04/11 14:44:50;;;;;;;7.82;5.18;;;;;;;;;;5033706;28;20465;-82
2021/04/11 14:47:19;;;;;;;5.90;4.05;;;;;;;;;;5032750;28;20419;-82
2021/04/11 14:49:45;;;;;;;7.80;4.78;;;;;;;;;;5039761;28;20373;-85
2021/04/11 14:52:35;;;;;;;6.75;5.28;;;;;;;;;;5032333;28;20393;-82
2021/04/11 14:55:07;;;;;;;9.77;6.15;;;;;;;;;;5030533;28;20369;-87